sensor_id;sensor_type;location;lat;lon;timestamp;P1;durP1;ratioP1;P2;durP2;ratioP2
3587;SDS011;1808;53.596;9.972;2022-11-14T00:02:01;36.78;;;21.85;;
3587;SDS011;1808;53.596;9.972;2022-11-14T00:04:27;37.72;;;24.02;;
3587;SDS011;1808;53.596;9.972;2022-11-14T00:06:53;33.88;;;19.10;;
3587;SDS011;1808;53.596;9.972;2022-11-14T00:09:23;37.08;;;19.83;;
3587;SDS011;1808;53.596;9.972;2022-11-14T00:11:50;37.70;;;20.65;;
3587;SDS011;1808;53.596;9.972;2022-11-14T00:14:16;38.58;;;25.05;;
3587;SDS011;1808;53.596;9.972;2022-11-14T00:16:43;39.60;;;29.58;;
3587;SDS011;1808;53.596;9.972;2022-11-14T00:19:10;31.42;;;17.67;;
3587;SDS011;1808;53.596;9.972;2022-11-14T00:21:37;27.90;;;16.33;;
3587;SDS011;1808;53.596;9.972;2022-11-14T00:24:03;35.38;;;20.73;;
3587;SDS011;1808;53.596;9.972;2022-11-14T00:26:30;40.55;;;19.33;;
3587;SDS011;1808;53.596;9.972;2022-11-14T00:28:56;35.15;;;18.70;;
3587;SDS011;1808;53.596;9.972;2022-11-14T00:31:23;42.85;;;19.90;;
3587;SDS011;1808;53.596;9.972;2022-11-14T00:33:49;35.65;;;22.33;;
3587;SDS011;1808;53.596;9.972;2022-11-14T00:36:17;40.38;;;23.50;;
3587;SDS011;1808;53.596;9.972;2022-11-14T00:38:44;37.35;;;19.52;;
3587;SDS011;1808;53.596;9.972;2022-11-14T00:41:10;38.08;;;20.08;;
3587;SDS011;1808;53.596;9.972;2022-11-14T00:43:36;34.20;;;19.08;;
3587;SDS011;1808;53.596;9.972;2022-11-14T00:46:03;40.28;;;22.70;;
3587;SDS011;1808;53.596;9.972;2022-11-14T00:48:29;33.22;;;18.27;;
3587;SDS011;1808;53.596;9.972;2022-11-14T00:50:56;38.40;;;20.25;;
3587;SDS011;1808;53.596;9.972;2022-11-14T00:53:24;36.20;;;18.95;;
3587;SDS011;1808;53.596;9.972;2022-11-14T00:55:50;35.80;;;20.60;;
3587;SDS011;1808;53.596;9.972;2022-11-14T00:58:16;35.35;;;19.80;;
3587;SDS011;1808;53.596;9.972;2022-11-14T01:00:43;35.88;;;19.65;;
3587;SDS011;1808;53.596;9.972;2022-11-14T01:03:10;38.70;;;21.92;;
3587;SDS011;1808;53.596;9.972;2022-11-14T01:05:39;42.08;;;21.92;;
3587;SDS011;1808;53.596;9.972;2022-11-14T01:08:06;41.40;;;21.45;;
3587;SDS011;1808;53.596;9.972;2022-11-14T01:10:34;36.85;;;19.73;;
3587;SDS011;1808;53.596;9.972;2022-11-14T01:13:04;37.35;;;20.50;;
3587;SDS011;1808;53.596;9.972;2022-11-14T01:15:30;37.35;;;18.52;;
3587;SDS011;1808;53.596;9.972;2022-11-14T01:17:57;36.28;;;19.05;;
3587;SDS011;1808;53.596;9.972;2022-11-14T01:20:23;38.17;;;21.00;;
3587;SDS011;1808;53.596;9.972;2022-11-14T01:22:50;37.53;;;19.35;;
3587;SDS011;1808;53.596;9.972;2022-11-14T01:25:16;42.35;;;21.55;;
3587;SDS011;1808;53.596;9.972;2022-11-14T01:27:44;38.97;;;19.63;;
3587;SDS011;1808;53.596;9.972;2022-11-14T01:30:11;35.05;;;18.80;;
3587;SDS011;1808;53.596;9.972;2022-11-14T01:32:38;42.38;;;23.88;;
3587;SDS011;1808;53.596;9.972;2022-11-14T01:35:05;34.92;;;18.00;;
3587;SDS011;1808;53.596;9.972;2022-11-14T01:37:32;38.80;;;20.48;;
3587;SDS011;1808;53.596;9.972;2022-11-14T01:39:58;40.45;;;25.77;;
3587;SDS011;1808;53.596;9.972;2022-11-14T01:42:24;40.97;;;22.27;;
3587;SDS011;1808;53.596;9.972;2022-11-14T01:44:52;42.55;;;20.10;;
3587;SDS011;1808;53.596;9.972;2022-11-14T01:47:20;42.28;;;21.92;;
3587;SDS011;1808;53.596;9.972;2022-11-14T01:49:49;46.75;;;25.25;;
3587;SDS011;1808;53.596;9.972;2022-11-14T01:52:18;35.75;;;18.63;;
3587;SDS011;1808;53.596;9.972;2022-11-14T01:54:47;35.33;;;19.83;;
3587;SDS011;1808;53.596;9.972;2022-11-14T01:57:15;38.08;;;20.88;;
3587;SDS011;1808;53.596;9.972;2022-11-14T01:59:45;41.88;;;20.65;;
3587;SDS011;1808;53.596;9.972;2022-11-14T02:02:19;41.08;;;21.25;;
3587;SDS011;1808;53.596;9.972;2022-11-14T02:04:47;45.72;;;20.50;;
3587;SDS011;1808;53.596;9.972;2022-11-14T02:07:16;41.38;;;23.33;;
3587;SDS011;1808;53.596;9.972;2022-11-14T02:09:44;44.38;;;21.75;;
3587;SDS011;1808;53.596;9.972;2022-11-14T02:12:12;39.60;;;22.02;;
3587;SDS011;1808;53.596;9.972;2022-11-14T02:14:40;43.97;;;20.33;;
3587;SDS011;1808;53.596;9.972;2022-11-14T02:17:09;44.50;;;23.27;;
3587;SDS011;1808;53.596;9.972;2022-11-14T02:19:40;42.17;;;21.50;;
3587;SDS011;1808;53.596;9.972;2022-11-14T02:22:09;38.77;;;19.13;;
3587;SDS011;1808;53.596;9.972;2022-11-14T02:24:35;43.78;;;21.05;;
3587;SDS011;1808;53.596;9.972;2022-11-14T02:27:02;38.60;;;20.80;;
3587;SDS011;1808;53.596;9.972;2022-11-14T02:29:30;38.90;;;19.98;;
3587;SDS011;1808;53.596;9.972;2022-11-14T02:31:57;40.55;;;22.00;;
3587;SDS011;1808;53.596;9.972;2022-11-14T02:34:23;47.53;;;22.58;;
3587;SDS011;1808;53.596;9.972;2022-11-14T02:36:50;42.45;;;23.50;;
3587;SDS011;1808;53.596;9.972;2022-11-14T02:39:18;42.05;;;21.90;;
3587;SDS011;1808;53.596;9.972;2022-11-14T02:41:44;38.17;;;20.75;;
3587;SDS011;1808;53.596;9.972;2022-11-14T02:44:11;39.97;;;21.45;;
3587;SDS011;1808;53.596;9.972;2022-11-14T02:46:37;41.22;;;20.92;;
3587;SDS011;1808;53.596;9.972;2022-11-14T02:49:04;43.30;;;23.55;;
3587;SDS011;1808;53.596;9.972;2022-11-14T02:51:30;40.97;;;21.83;;
3587;SDS011;1808;53.596;9.972;2022-11-14T02:53:57;40.75;;;21.13;;
3587;SDS011;1808;53.596;9.972;2022-11-14T02:56:24;44.95;;;20.33;;
3587;SDS011;1808;53.596;9.972;2022-11-14T02:58:51;45.83;;;21.80;;
3587;SDS011;1808;53.596;9.972;2022-11-14T03:01:17;43.10;;;21.33;;
3587;SDS011;1808;53.596;9.972;2022-11-14T03:03:44;41.95;;;21.08;;
3587;SDS011;1808;53.596;9.972;2022-11-14T03:06:10;41.78;;;22.13;;
3587;SDS011;1808;53.596;9.972;2022-11-14T03:08:37;37.72;;;21.48;;
3587;SDS011;1808;53.596;9.972;2022-11-14T03:11:03;45.72;;;21.73;;
3587;SDS011;1808;53.596;9.972;2022-11-14T03:13:32;41.47;;;20.95;;
3587;SDS011;1808;53.596;9.972;2022-11-14T03:16:03;47.80;;;21.10;;
3587;SDS011;1808;53.596;9.972;2022-11-14T03:18:30;46.90;;;23.42;;
3587;SDS011;1808;53.596;9.972;2022-11-14T03:20:56;44.78;;;21.45;;
3587;SDS011;1808;53.596;9.972;2022-11-14T03:23:23;45.80;;;23.05;;
3587;SDS011;1808;53.596;9.972;2022-11-14T03:25:49;46.83;;;25.77;;
3587;SDS011;1808;53.596;9.972;2022-11-14T03:28:15;46.90;;;23.38;;
3587;SDS011;1808;53.596;9.972;2022-11-14T03:30:43;43.50;;;23.67;;
3587;SDS011;1808;53.596;9.972;2022-11-14T03:33:11;45.38;;;23.30;;
3587;SDS011;1808;53.596;9.972;2022-11-14T03:35:40;48.75;;;27.60;;
3587;SDS011;1808;53.596;9.972;2022-11-14T03:38:07;48.00;;;24.45;;
3587;SDS011;1808;53.596;9.972;2022-11-14T03:40:33;42.55;;;23.60;;
3587;SDS011;1808;53.596;9.972;2022-11-14T03:42:59;43.22;;;22.30;;
3587;SDS011;1808;53.596;9.972;2022-11-14T03:45:26;48.20;;;24.15;;
3587;SDS011;1808;53.596;9.972;2022-11-14T03:47:54;48.97;;;25.25;;
3587;SDS011;1808;53.596;9.972;2022-11-14T03:50:20;49.58;;;25.00;;
3587;SDS011;1808;53.596;9.972;2022-11-14T03:52:47;47.85;;;22.85;;
3587;SDS011;1808;53.596;9.972;2022-11-14T03:55:14;51.72;;;26.80;;
3587;SDS011;1808;53.596;9.972;2022-11-14T03:57:40;40.40;;;21.13;;
3587;SDS011;1808;53.596;9.972;2022-11-14T04:00:07;44.22;;;25.95;;
3587;SDS011;1808;53.596;9.972;2022-11-14T04:02:34;42.85;;;21.55;;
3587;SDS011;1808;53.596;9.972;2022-11-14T04:05:02;48.38;;;25.80;;
3587;SDS011;1808;53.596;9.972;2022-11-14T04:07:28;43.58;;;21.25;;
3587;SDS011;1808;53.596;9.972;2022-11-14T04:09:55;44.63;;;23.75;;
3587;SDS011;1808;53.596;9.972;2022-11-14T04:12:21;44.25;;;23.30;;
3587;SDS011;1808;53.596;9.972;2022-11-14T04:14:47;47.95;;;22.80;;
3587;SDS011;1808;53.596;9.972;2022-11-14T04:17:14;43.50;;;23.02;;
3587;SDS011;1808;53.596;9.972;2022-11-14T04:19:40;44.50;;;22.55;;
3587;SDS011;1808;53.596;9.972;2022-11-14T04:22:08;47.58;;;26.38;;
3587;SDS011;1808;53.596;9.972;2022-11-14T04:24:34;41.38;;;21.77;;
3587;SDS011;1808;53.596;9.972;2022-11-14T04:27:00;42.80;;;22.17;;
3587;SDS011;1808;53.596;9.972;2022-11-14T04:29:26;48.13;;;25.48;;
3587;SDS011;1808;53.596;9.972;2022-11-14T04:31:53;41.65;;;21.20;;
3587;SDS011;1808;53.596;9.972;2022-11-14T04:34:19;46.03;;;23.33;;
3587;SDS011;1808;53.596;9.972;2022-11-14T04:36:46;41.72;;;20.98;;
3587;SDS011;1808;53.596;9.972;2022-11-14T04:39:16;41.40;;;22.48;;
3587;SDS011;1808;53.596;9.972;2022-11-14T04:41:42;42.35;;;19.63;;
3587;SDS011;1808;53.596;9.972;2022-11-14T04:44:09;47.65;;;25.27;;
3587;SDS011;1808;53.596;9.972;2022-11-14T04:46:35;46.60;;;26.35;;
3587;SDS011;1808;53.596;9.972;2022-11-14T04:49:01;48.53;;;23.60;;
3587;SDS011;1808;53.596;9.972;2022-11-14T04:51:28;39.40;;;20.55;;
3587;SDS011;1808;53.596;9.972;2022-11-14T04:53:54;44.13;;;21.67;;
3587;SDS011;1808;53.596;9.972;2022-11-14T04:56:22;46.35;;;24.92;;
3587;SDS011;1808;53.596;9.972;2022-11-14T04:58:49;46.85;;;23.75;;
3587;SDS011;1808;53.596;9.972;2022-11-14T05:01:16;42.28;;;21.30;;
3587;SDS011;1808;53.596;9.972;2022-11-14T05:03:42;43.92;;;23.08;;
3587;SDS011;1808;53.596;9.972;2022-11-14T05:06:08;42.20;;;22.00;;
3587;SDS011;1808;53.596;9.972;2022-11-14T05:08:35;38.22;;;20.02;;
3587;SDS011;1808;53.596;9.972;2022-11-14T05:11:01;44.00;;;21.63;;
3587;SDS011;1808;53.596;9.972;2022-11-14T05:13:29;45.47;;;24.23;;
3587;SDS011;1808;53.596;9.972;2022-11-14T05:15:57;45.60;;;22.48;;
3587;SDS011;1808;53.596;9.972;2022-11-14T05:18:23;46.63;;;24.05;;
3587;SDS011;1808;53.596;9.972;2022-11-14T05:20:50;45.92;;;23.52;;
3587;SDS011;1808;53.596;9.972;2022-11-14T05:23:17;37.55;;;20.02;;
3587;SDS011;1808;53.596;9.972;2022-11-14T05:25:44;41.67;;;21.75;;
3587;SDS011;1808;53.596;9.972;2022-11-14T05:28:11;41.50;;;20.77;;
3587;SDS011;1808;53.596;9.972;2022-11-14T05:30:38;51.97;;;27.80;;
3587;SDS011;1808;53.596;9.972;2022-11-14T05:33:05;47.22;;;22.50;;
3587;SDS011;1808;53.596;9.972;2022-11-14T05:35:31;43.63;;;21.63;;
3587;SDS011;1808;53.596;9.972;2022-11-14T05:37:59;45.55;;;22.65;;
3587;SDS011;1808;53.596;9.972;2022-11-14T05:40:25;48.05;;;26.33;;
3587;SDS011;1808;53.596;9.972;2022-11-14T05:42:53;48.25;;;23.88;;
3587;SDS011;1808;53.596;9.972;2022-11-14T05:45:19;46.30;;;23.08;;
3587;SDS011;1808;53.596;9.972;2022-11-14T05:47:47;49.08;;;24.27;;
3587;SDS011;1808;53.596;9.972;2022-11-14T05:50:13;47.08;;;23.30;;
3587;SDS011;1808;53.596;9.972;2022-11-14T05:52:40;47.80;;;24.08;;
3587;SDS011;1808;53.596;9.972;2022-11-14T05:55:07;50.15;;;23.20;;
3587;SDS011;1808;53.596;9.972;2022-11-14T05:57:33;51.50;;;25.27;;
3587;SDS011;1808;53.596;9.972;2022-11-14T06:00:00;47.47;;;24.08;;
3587;SDS011;1808;53.596;9.972;2022-11-14T06:02:27;48.90;;;25.13;;
3587;SDS011;1808;53.596;9.972;2022-11-14T06:04:55;43.67;;;23.60;;
3587;SDS011;1808;53.596;9.972;2022-11-14T06:07:21;48.47;;;24.23;;
3587;SDS011;1808;53.596;9.972;2022-11-14T06:09:47;46.42;;;23.45;;
3587;SDS011;1808;53.596;9.972;2022-11-14T06:12:13;48.40;;;25.35;;
3587;SDS011;1808;53.596;9.972;2022-11-14T06:14:40;46.05;;;22.85;;
3587;SDS011;1808;53.596;9.972;2022-11-14T06:17:06;47.28;;;24.45;;
3587;SDS011;1808;53.596;9.972;2022-11-14T06:19:33;49.97;;;24.13;;
3587;SDS011;1808;53.596;9.972;2022-11-14T06:22:00;53.40;;;28.77;;
3587;SDS011;1808;53.596;9.972;2022-11-14T06:24:27;49.28;;;24.08;;
3587;SDS011;1808;53.596;9.972;2022-11-14T06:26:53;56.85;;;24.25;;
3587;SDS011;1808;53.596;9.972;2022-11-14T06:29:20;51.58;;;25.52;;
3587;SDS011;1808;53.596;9.972;2022-11-14T06:31:46;49.35;;;25.10;;
3587;SDS011;1808;53.596;9.972;2022-11-14T06:34:12;51.90;;;24.08;;
3587;SDS011;1808;53.596;9.972;2022-11-14T06:36:39;49.38;;;23.88;;
3587;SDS011;1808;53.596;9.972;2022-11-14T06:39:06;48.97;;;24.35;;
3587;SDS011;1808;53.596;9.972;2022-11-14T06:41:33;49.80;;;24.95;;
3587;SDS011;1808;53.596;9.972;2022-11-14T06:43:59;52.47;;;24.95;;
3587;SDS011;1808;53.596;9.972;2022-11-14T06:46:26;49.60;;;21.75;;
3587;SDS011;1808;53.596;9.972;2022-11-14T06:48:52;49.65;;;24.45;;
3587;SDS011;1808;53.596;9.972;2022-11-14T06:51:18;48.47;;;23.55;;
3587;SDS011;1808;53.596;9.972;2022-11-14T06:53:44;53.35;;;24.98;;
3587;SDS011;1808;53.596;9.972;2022-11-14T06:56:13;49.60;;;23.58;;
3587;SDS011;1808;53.596;9.972;2022-11-14T06:58:41;47.72;;;24.15;;
3587;SDS011;1808;53.596;9.972;2022-11-14T07:01:09;49.65;;;23.08;;
3587;SDS011;1808;53.596;9.972;2022-11-14T07:03:37;47.15;;;23.52;;
3587;SDS011;1808;53.596;9.972;2022-11-14T07:06:04;47.13;;;22.80;;
3587;SDS011;1808;53.596;9.972;2022-11-14T07:08:31;48.83;;;23.30;;
3587;SDS011;1808;53.596;9.972;2022-11-14T07:11:01;51.08;;;24.60;;
3587;SDS011;1808;53.596;9.972;2022-11-14T07:13:30;46.88;;;22.10;;
3587;SDS011;1808;53.596;9.972;2022-11-14T07:15:56;55.03;;;28.35;;
3587;SDS011;1808;53.596;9.972;2022-11-14T07:18:23;47.33;;;24.83;;
3587;SDS011;1808;53.596;9.972;2022-11-14T07:20:49;53.55;;;24.88;;
3587;SDS011;1808;53.596;9.972;2022-11-14T07:25:48;48.45;;;23.50;;
3587;SDS011;1808;53.596;9.972;2022-11-14T07:28:14;50.35;;;21.52;;
3587;SDS011;1808;53.596;9.972;2022-11-14T07:30:42;56.03;;;26.92;;
3587;SDS011;1808;53.596;9.972;2022-11-14T07:33:08;57.13;;;33.13;;
3587;SDS011;1808;53.596;9.972;2022-11-14T07:35:35;52.20;;;25.65;;
3587;SDS011;1808;53.596;9.972;2022-11-14T07:38:04;53.55;;;26.67;;
3587;SDS011;1808;53.596;9.972;2022-11-14T07:40:30;51.65;;;22.77;;
3587;SDS011;1808;53.596;9.972;2022-11-14T07:42:57;51.75;;;24.23;;
3587;SDS011;1808;53.596;9.972;2022-11-14T07:45:24;49.83;;;23.75;;
3587;SDS011;1808;53.596;9.972;2022-11-14T07:47:54;53.83;;;23.40;;
3587;SDS011;1808;53.596;9.972;2022-11-14T07:50:20;53.10;;;25.00;;
3587;SDS011;1808;53.596;9.972;2022-11-14T07:52:48;52.50;;;25.75;;
3587;SDS011;1808;53.596;9.972;2022-11-14T07:55:15;55.22;;;25.02;;
3587;SDS011;1808;53.596;9.972;2022-11-14T07:57:42;52.28;;;27.30;;
3587;SDS011;1808;53.596;9.972;2022-11-14T08:00:08;54.42;;;25.45;;
3587;SDS011;1808;53.596;9.972;2022-11-14T08:02:36;50.63;;;24.60;;
3587;SDS011;1808;53.596;9.972;2022-11-14T08:05:04;54.08;;;25.25;;
3587;SDS011;1808;53.596;9.972;2022-11-14T08:07:31;55.83;;;29.70;;
3587;SDS011;1808;53.596;9.972;2022-11-14T08:09:57;52.00;;;24.13;;
3587;SDS011;1808;53.596;9.972;2022-11-14T08:12:23;46.13;;;23.65;;
3587;SDS011;1808;53.596;9.972;2022-11-14T08:14:50;49.88;;;23.85;;
3587;SDS011;1808;53.596;9.972;2022-11-14T08:17:16;52.08;;;25.52;;
3587;SDS011;1808;53.596;9.972;2022-11-14T08:19:42;58.63;;;25.92;;
3587;SDS011;1808;53.596;9.972;2022-11-14T08:22:10;46.53;;;22.05;;
3587;SDS011;1808;53.596;9.972;2022-11-14T08:24:36;47.30;;;22.33;;
3587;SDS011;1808;53.596;9.972;2022-11-14T08:27:03;49.80;;;23.63;;
3587;SDS011;1808;53.596;9.972;2022-11-14T08:29:29;50.72;;;24.25;;
3587;SDS011;1808;53.596;9.972;2022-11-14T08:31:55;51.13;;;22.65;;
3587;SDS011;1808;53.596;9.972;2022-11-14T08:34:22;54.38;;;24.55;;
3587;SDS011;1808;53.596;9.972;2022-11-14T08:36:48;47.97;;;23.20;;
3587;SDS011;1808;53.596;9.972;2022-11-14T08:39:16;55.88;;;32.20;;
3587;SDS011;1808;53.596;9.972;2022-11-14T08:41:42;50.60;;;23.13;;
3587;SDS011;1808;53.596;9.972;2022-11-14T08:44:08;49.83;;;22.60;;
3587;SDS011;1808;53.596;9.972;2022-11-14T08:46:39;59.38;;;26.85;;
3587;SDS011;1808;53.596;9.972;2022-11-14T08:49:05;55.17;;;24.05;;
3587;SDS011;1808;53.596;9.972;2022-11-14T08:51:32;44.85;;;21.42;;
3587;SDS011;1808;53.596;9.972;2022-11-14T08:53:58;61.35;;;30.13;;
3587;SDS011;1808;53.596;9.972;2022-11-14T08:56:26;48.25;;;22.45;;
3587;SDS011;1808;53.596;9.972;2022-11-14T08:58:52;48.58;;;23.92;;
3587;SDS011;1808;53.596;9.972;2022-11-14T09:01:18;47.95;;;22.65;;
3587;SDS011;1808;53.596;9.972;2022-11-14T09:03:45;54.42;;;26.77;;
3587;SDS011;1808;53.596;9.972;2022-11-14T09:06:11;50.10;;;23.77;;
3587;SDS011;1808;53.596;9.972;2022-11-14T09:08:37;48.67;;;21.92;;
3587;SDS011;1808;53.596;9.972;2022-11-14T09:11:04;49.35;;;23.35;;
3587;SDS011;1808;53.596;9.972;2022-11-14T09:13:32;47.75;;;23.77;;
3587;SDS011;1808;53.596;9.972;2022-11-14T09:15:58;49.45;;;21.88;;
3587;SDS011;1808;53.596;9.972;2022-11-14T09:18:24;49.63;;;22.15;;
3587;SDS011;1808;53.596;9.972;2022-11-14T09:20:51;53.63;;;25.27;;
3587;SDS011;1808;53.596;9.972;2022-11-14T09:23:17;50.53;;;21.70;;
3587;SDS011;1808;53.596;9.972;2022-11-14T09:25:43;45.70;;;21.27;;
3587;SDS011;1808;53.596;9.972;2022-11-14T09:28:10;48.22;;;22.67;;
3587;SDS011;1808;53.596;9.972;2022-11-14T09:30:37;51.42;;;25.52;;
3587;SDS011;1808;53.596;9.972;2022-11-14T09:33:05;56.65;;;23.70;;
3587;SDS011;1808;53.596;9.972;2022-11-14T09:35:32;54.05;;;22.55;;
3587;SDS011;1808;53.596;9.972;2022-11-14T09:38:00;59.70;;;25.17;;
3587;SDS011;1808;53.596;9.972;2022-11-14T09:40:27;55.00;;;25.25;;
3587;SDS011;1808;53.596;9.972;2022-11-14T09:43:00;58.30;;;29.40;;
3587;SDS011;1808;53.596;9.972;2022-11-14T09:45:33;55.33;;;23.75;;
3587;SDS011;1808;53.596;9.972;2022-11-14T09:48:03;58.67;;;27.38;;
3587;SDS011;1808;53.596;9.972;2022-11-14T09:50:32;50.63;;;23.30;;
3587;SDS011;1808;53.596;9.972;2022-11-14T09:53:00;48.50;;;25.45;;
3587;SDS011;1808;53.596;9.972;2022-11-14T09:55:30;44.00;;;21.33;;
3587;SDS011;1808;53.596;9.972;2022-11-14T09:57:57;54.85;;;23.85;;
3587;SDS011;1808;53.596;9.972;2022-11-14T10:00:25;51.58;;;23.52;;
3587;SDS011;1808;53.596;9.972;2022-11-14T10:02:59;51.15;;;21.98;;
3587;SDS011;1808;53.596;9.972;2022-11-14T10:05:42;50.10;;;22.45;;
3587;SDS011;1808;53.596;9.972;2022-11-14T10:08:26;51.53;;;21.73;;
3587;SDS011;1808;53.596;9.972;2022-11-14T10:11:03;49.35;;;24.67;;
3587;SDS011;1808;53.596;9.972;2022-11-14T10:13:39;48.72;;;21.63;;
3587;SDS011;1808;53.596;9.972;2022-11-14T10:16:17;57.17;;;25.23;;
3587;SDS011;1808;53.596;9.972;2022-11-14T10:18:52;58.53;;;27.55;;
3587;SDS011;1808;53.596;9.972;2022-11-14T10:21:34;52.80;;;22.45;;
3587;SDS011;1808;53.596;9.972;2022-11-14T10:24:11;48.75;;;21.40;;
3587;SDS011;1808;53.596;9.972;2022-11-14T10:26:50;48.85;;;22.83;;
3587;SDS011;1808;53.596;9.972;2022-11-14T10:29:27;44.22;;;22.58;;
3587;SDS011;1808;53.596;9.972;2022-11-14T10:32:13;49.92;;;23.60;;
3587;SDS011;1808;53.596;9.972;2022-11-14T10:34:45;47.17;;;22.77;;
3587;SDS011;1808;53.596;9.972;2022-11-14T10:37:16;44.58;;;23.02;;
3587;SDS011;1808;53.596;9.972;2022-11-14T10:39:45;46.72;;;28.00;;
3587;SDS011;1808;53.596;9.972;2022-11-14T10:42:16;41.35;;;20.95;;
3587;SDS011;1808;53.596;9.972;2022-11-14T10:44:48;46.58;;;21.73;;
3587;SDS011;1808;53.596;9.972;2022-11-14T10:47:17;45.58;;;21.95;;
3587;SDS011;1808;53.596;9.972;2022-11-14T10:49:47;44.67;;;22.83;;
3587;SDS011;1808;53.596;9.972;2022-11-14T10:52:17;40.65;;;21.15;;
3587;SDS011;1808;53.596;9.972;2022-11-14T10:54:47;44.38;;;22.23;;
3587;SDS011;1808;53.596;9.972;2022-11-14T10:57:17;50.40;;;23.13;;
3587;SDS011;1808;53.596;9.972;2022-11-14T10:59:45;41.13;;;22.88;;
3587;SDS011;1808;53.596;9.972;2022-11-14T11:02:12;38.97;;;20.23;;
3587;SDS011;1808;53.596;9.972;2022-11-14T11:04:39;39.88;;;21.10;;
3587;SDS011;1808;53.596;9.972;2022-11-14T11:07:19;40.63;;;20.08;;
3587;SDS011;1808;53.596;9.972;2022-11-14T11:10:05;46.38;;;20.92;;
3587;SDS011;1808;53.596;9.972;2022-11-14T11:12:51;40.08;;;21.30;;
3587;SDS011;1808;53.596;9.972;2022-11-14T11:15:19;37.97;;;19.67;;
3587;SDS011;1808;53.596;9.972;2022-11-14T11:17:53;38.03;;;21.02;;
3587;SDS011;1808;53.596;9.972;2022-11-14T11:20:25;41.83;;;20.83;;
3587;SDS011;1808;53.596;9.972;2022-11-14T11:23:01;39.15;;;20.63;;
3587;SDS011;1808;53.596;9.972;2022-11-14T11:25:30;41.10;;;21.73;;
3587;SDS011;1808;53.596;9.972;2022-11-14T11:28:05;39.33;;;21.13;;
3587;SDS011;1808;53.596;9.972;2022-11-14T11:30:33;38.10;;;20.65;;
3587;SDS011;1808;53.596;9.972;2022-11-14T11:33:13;37.53;;;20.23;;
3587;SDS011;1808;53.596;9.972;2022-11-14T11:35:40;38.40;;;19.90;;
3587;SDS011;1808;53.596;9.972;2022-11-14T11:38:09;42.38;;;22.73;;
3587;SDS011;1808;53.596;9.972;2022-11-14T11:40:36;40.67;;;20.50;;
3587;SDS011;1808;53.596;9.972;2022-11-14T11:43:07;39.42;;;20.10;;
3587;SDS011;1808;53.596;9.972;2022-11-14T11:45:36;39.17;;;20.65;;
3587;SDS011;1808;53.596;9.972;2022-11-14T11:48:07;40.40;;;23.17;;
3587;SDS011;1808;53.596;9.972;2022-11-14T11:50:38;37.70;;;20.33;;
3587;SDS011;1808;53.596;9.972;2022-11-14T11:53:06;36.63;;;20.35;;
3587;SDS011;1808;53.596;9.972;2022-11-14T11:55:41;37.30;;;19.02;;
3587;SDS011;1808;53.596;9.972;2022-11-14T11:58:10;41.17;;;23.50;;
3587;SDS011;1808;53.596;9.972;2022-11-14T12:00:40;38.80;;;20.73;;
3587;SDS011;1808;53.596;9.972;2022-11-14T12:03:08;40.67;;;25.40;;
3587;SDS011;1808;53.596;9.972;2022-11-14T12:05:40;38.25;;;20.42;;
3587;SDS011;1808;53.596;9.972;2022-11-14T12:08:14;35.33;;;19.75;;
3587;SDS011;1808;53.596;9.972;2022-11-14T12:10:44;35.58;;;20.10;;
3587;SDS011;1808;53.596;9.972;2022-11-14T12:13:16;39.55;;;21.92;;
3587;SDS011;1808;53.596;9.972;2022-11-14T12:15:50;34.60;;;18.63;;
3587;SDS011;1808;53.596;9.972;2022-11-14T12:18:40;37.30;;;20.35;;
3587;SDS011;1808;53.596;9.972;2022-11-14T12:21:11;34.55;;;19.48;;
3587;SDS011;1808;53.596;9.972;2022-11-14T12:23:46;34.35;;;19.55;;
3587;SDS011;1808;53.596;9.972;2022-11-14T12:26:27;37.13;;;20.40;;
3587;SDS011;1808;53.596;9.972;2022-11-14T12:29:09;37.92;;;20.17;;
3587;SDS011;1808;53.596;9.972;2022-11-14T12:31:43;34.83;;;19.52;;
3587;SDS011;1808;53.596;9.972;2022-11-14T12:34:12;38.65;;;21.48;;
3587;SDS011;1808;53.596;9.972;2022-11-14T12:36:45;39.60;;;21.75;;
3587;SDS011;1808;53.596;9.972;2022-11-14T12:39:21;34.50;;;18.40;;
3587;SDS011;1808;53.596;9.972;2022-11-14T12:41:49;38.95;;;19.38;;
3587;SDS011;1808;53.596;9.972;2022-11-14T12:44:16;41.25;;;22.00;;
3587;SDS011;1808;53.596;9.972;2022-11-14T12:52:40;36.72;;;19.88;;
3587;SDS011;1808;53.596;9.972;2022-11-14T12:58:10;40.97;;;21.00;;
3587;SDS011;1808;53.596;9.972;2022-11-14T13:00:37;36.10;;;19.80;;
3587;SDS011;1808;53.596;9.972;2022-11-14T13:03:19;39.45;;;21.15;;
3587;SDS011;1808;53.596;9.972;2022-11-14T13:05:53;38.80;;;20.85;;
3587;SDS011;1808;53.596;9.972;2022-11-14T13:08:36;41.45;;;20.88;;
3587;SDS011;1808;53.596;9.972;2022-11-14T13:14:23;38.45;;;20.98;;
3587;SDS011;1808;53.596;9.972;2022-11-14T13:17:19;37.63;;;19.00;;
3587;SDS011;1808;53.596;9.972;2022-11-14T13:29:46;38.03;;;19.38;;
3587;SDS011;1808;53.596;9.972;2022-11-14T13:34:56;43.60;;;20.13;;
3587;SDS011;1808;53.596;9.972;2022-11-14T13:37:29;39.22;;;21.08;;
3587;SDS011;1808;53.596;9.972;2022-11-14T13:40:03;36.70;;;20.77;;
3587;SDS011;1808;53.596;9.972;2022-11-14T13:42:38;39.88;;;21.38;;
3587;SDS011;1808;53.596;9.972;2022-11-14T13:45:17;38.78;;;20.13;;
3587;SDS011;1808;53.596;9.972;2022-11-14T13:50:48;39.58;;;21.02;;
3587;SDS011;1808;53.596;9.972;2022-11-14T13:53:17;42.45;;;21.60;;
3587;SDS011;1808;53.596;9.972;2022-11-14T13:55:51;36.75;;;20.65;;
3587;SDS011;1808;53.596;9.972;2022-11-14T13:58:23;42.97;;;22.85;;
3587;SDS011;1808;53.596;9.972;2022-11-14T14:01:02;42.03;;;22.13;;
3587;SDS011;1808;53.596;9.972;2022-11-14T14:03:35;42.30;;;23.15;;
3587;SDS011;1808;53.596;9.972;2022-11-14T14:06:15;37.85;;;19.73;;
3587;SDS011;1808;53.596;9.972;2022-11-14T14:08:55;39.85;;;20.88;;
3587;SDS011;1808;53.596;9.972;2022-11-14T14:11:31;37.13;;;19.40;;
3587;SDS011;1808;53.596;9.972;2022-11-14T14:14:02;38.75;;;21.02;;
3587;SDS011;1808;53.596;9.972;2022-11-14T14:16:33;39.38;;;22.63;;
3587;SDS011;1808;53.596;9.972;2022-11-14T14:19:03;37.55;;;20.15;;
3587;SDS011;1808;53.596;9.972;2022-11-14T14:21:36;36.43;;;20.93;;
3587;SDS011;1808;53.596;9.972;2022-11-14T14:24:09;39.03;;;20.77;;
3587;SDS011;1808;53.596;9.972;2022-11-14T14:26:45;37.65;;;19.45;;
3587;SDS011;1808;53.596;9.972;2022-11-14T14:29:22;42.35;;;22.25;;
3587;SDS011;1808;53.596;9.972;2022-11-14T14:31:51;38.38;;;22.13;;
3587;SDS011;1808;53.596;9.972;2022-11-14T14:34:21;39.17;;;18.58;;
3587;SDS011;1808;53.596;9.972;2022-11-14T14:36:50;37.03;;;19.53;;
3587;SDS011;1808;53.596;9.972;2022-11-14T14:39:17;36.58;;;19.70;;
3587;SDS011;1808;53.596;9.972;2022-11-14T14:41:46;41.30;;;20.02;;
3587;SDS011;1808;53.596;9.972;2022-11-14T14:44:20;37.70;;;19.63;;
3587;SDS011;1808;53.596;9.972;2022-11-14T14:46:49;42.38;;;20.90;;
3587;SDS011;1808;53.596;9.972;2022-11-14T14:49:21;39.13;;;20.20;;
3587;SDS011;1808;53.596;9.972;2022-11-14T14:51:49;40.35;;;20.10;;
3587;SDS011;1808;53.596;9.972;2022-11-14T14:54:19;39.53;;;20.33;;
3587;SDS011;1808;53.596;9.972;2022-11-14T14:56:52;40.22;;;20.50;;
3587;SDS011;1808;53.596;9.972;2022-11-14T14:59:21;37.92;;;20.85;;
3587;SDS011;1808;53.596;9.972;2022-11-14T15:01:49;40.97;;;21.73;;
3587;SDS011;1808;53.596;9.972;2022-11-14T15:04:16;38.38;;;20.48;;
3587;SDS011;1808;53.596;9.972;2022-11-14T15:06:45;39.33;;;20.55;;
3587;SDS011;1808;53.596;9.972;2022-11-14T15:09:13;38.40;;;20.23;;
3587;SDS011;1808;53.596;9.972;2022-11-14T15:11:43;39.75;;;21.15;;
3587;SDS011;1808;53.596;9.972;2022-11-14T15:14:11;40.85;;;21.05;;
3587;SDS011;1808;53.596;9.972;2022-11-14T15:16:38;39.65;;;21.48;;
3587;SDS011;1808;53.596;9.972;2022-11-14T15:19:05;42.47;;;21.23;;
3587;SDS011;1808;53.596;9.972;2022-11-14T15:21:31;43.05;;;21.15;;
3587;SDS011;1808;53.596;9.972;2022-11-14T15:23:59;46.33;;;21.10;;
3587;SDS011;1808;53.596;9.972;2022-11-14T15:26:28;42.40;;;21.30;;
3587;SDS011;1808;53.596;9.972;2022-11-14T15:29:03;42.83;;;21.95;;